sensor_id;sensor_type;location;lat;lon;timestamp;temperature;humidity
19755;DHT22;10036;47.812;9.274;2023-06-22T00:00:32;21.00;99.90
19755;DHT22;10036;47.812;9.274;2023-06-22T00:03:01;21.00;99.90
19755;DHT22;10036;47.812;9.274;2023-06-22T00:05:27;21.00;99.90
19755;DHT22;10036;47.812;9.274;2023-06-22T00:07:54;21.10;99.90
19755;DHT22;10036;47.812;9.274;2023-06-22T00:10:21;21.20;99.90
19755;DHT22;10036;47.812;9.274;2023-06-22T00:12:48;21.30;99.90
19755;DHT22;10036;47.812;9.274;2023-06-22T00:15:15;21.30;99.90
19755;DHT22;10036;47.812;9.274;2023-06-22T00:17:42;21.40;99.90
19755;DHT22;10036;47.812;9.274;2023-06-22T00:20:11;21.30;99.90
19755;DHT22;10036;47.812;9.274;2023-06-22T00:22:39;21.30;99.90
19755;DHT22;10036;47.812;9.274;2023-06-22T00:25:08;21.30;99.90
19755;DHT22;10036;47.812;9.274;2023-06-22T00:27:35;21.10;99.90
19755;DHT22;10036;47.812;9.274;2023-06-22T00:30:03;21.00;99.90
19755;DHT22;10036;47.812;9.274;2023-06-22T00:32:29;20.90;99.90
19755;DHT22;10036;47.812;9.274;2023-06-22T00:34:57;20.90;99.90
19755;DHT22;10036;47.812;9.274;2023-06-22T00:37:25;20.90;99.90
19755;DHT22;10036;47.812;9.274;2023-06-22T00:39:55;20.80;99.90
19755;DHT22;10036;47.812;9.274;2023-06-22T00:42:22;20.80;99.90
19755;DHT22;10036;47.812;9.274;2023-06-22T00:44:49;20.80;99.90
19755;DHT22;10036;47.812;9.274;2023-06-22T00:47:17;20.80;99.90
19755;DHT22;10036;47.812;9.274;2023-06-22T00:49:45;20.70;99.90
19755;DHT22;10036;47.812;9.274;2023-06-22T00:52:14;20.70;99.90
19755;DHT22;10036;47.812;9.274;2023-06-22T00:54:47;20.60;99.90
19755;DHT22;10036;47.812;9.274;2023-06-22T00:57:17;20.50;99.90
19755;DHT22;10036;47.812;9.274;2023-06-22T00:59:45;20.40;99.90
19755;DHT22;10036;47.812;9.274;2023-06-22T01:02:12;20.50;99.90
19755;DHT22;10036;47.812;9.274;2023-06-22T01:04:40;20.60;99.90
19755;DHT22;10036;47.812;9.274;2023-06-22T01:07:13;20.60;99.90
19755;DHT22;10036;47.812;9.274;2023-06-22T01:09:49;20.50;99.90
19755;DHT22;10036;47.812;9.274;2023-06-22T01:12:18;20.50;99.90
19755;DHT22;10036;47.812;9.274;2023-06-22T01:14:50;20.50;99.90
19755;DHT22;10036;47.812;9.274;2023-06-22T01:17:19;20.30;99.90
19755;DHT22;10036;47.812;9.274;2023-06-22T01:19:49;20.30;99.90
19755;DHT22;10036;47.812;9.274;2023-06-22T01:22:21;20.40;99.90
19755;DHT22;10036;47.812;9.274;2023-06-22T01:24:57;20.50;99.90
19755;DHT22;10036;47.812;9.274;2023-06-22T01:27:33;20.60;99.90
19755;DHT22;10036;47.812;9.274;2023-06-22T01:30:05;20.40;99.90
19755;DHT22;10036;47.812;9.274;2023-06-22T01:32:37;20.40;99.90
19755;DHT22;10036;47.812;9.274;2023-06-22T01:35:06;20.30;99.90
19755;DHT22;10036;47.812;9.274;2023-06-22T01:37:35;20.40;99.90
19755;DHT22;10036;47.812;9.274;2023-06-22T01:40:04;20.40;99.90
19755;DHT22;10036;47.812;9.274;2023-06-22T01:42:32;20.30;99.90
19755;DHT22;10036;47.812;9.274;2023-06-22T01:44:59;20.30;99.90
19755;DHT22;10036;47.812;9.274;2023-06-22T01:47:28;20.30;99.90
19755;DHT22;10036;47.812;9.274;2023-06-22T01:49:55;20.20;99.90
19755;DHT22;10036;47.812;9.274;2023-06-22T01:52:22;20.20;99.90
19755;DHT22;10036;47.812;9.274;2023-06-22T01:54:49;20.20;99.90
19755;DHT22;10036;47.812;9.274;2023-06-22T01:57:16;20.20;99.90
19755;DHT22;10036;47.812;9.274;2023-06-22T01:59:47;20.20;99.90
19755;DHT22;10036;47.812;9.274;2023-06-22T02:02:18;20.20;99.90
19755;DHT22;10036;47.812;9.274;2023-06-22T02:04:51;20.10;99.90
19755;DHT22;10036;47.812;9.274;2023-06-22T02:07:23;20.20;99.90
19755;DHT22;10036;47.812;9.274;2023-06-22T02:09:52;20.10;99.90
19755;DHT22;10036;47.812;9.274;2023-06-22T02:12:23;20.10;99.90
19755;DHT22;10036;47.812;9.274;2023-06-22T02:14:53;20.20;99.90
19755;DHT22;10036;47.812;9.274;2023-06-22T02:17:21;20.20;99.90
19755;DHT22;10036;47.812;9.274;2023-06-22T02:19:49;20.20;99.90
19755;DHT22;10036;47.812;9.274;2023-06-22T02:22:16;20.20;99.90
19755;DHT22;10036;47.812;9.274;2023-06-22T02:24:43;20.10;99.90
19755;DHT22;10036;47.812;9.274;2023-06-22T02:27:09;20.00;99.90
19755;DHT22;10036;47.812;9.274;2023-06-22T02:29:36;20.00;99.90
19755;DHT22;10036;47.812;9.274;2023-06-22T02:32:04;20.00;99.90
19755;DHT22;10036;47.812;9.274;2023-06-22T02:34:31;20.00;99.90
19755;DHT22;10036;47.812;9.274;2023-06-22T02:37:00;20.00;99.90
19755;DHT22;10036;47.812;9.274;2023-06-22T02:39:28;20.00;99.90
19755;DHT22;10036;47.812;9.274;2023-06-22T02:41:54;19.90;99.90
19755;DHT22;10036;47.812;9.274;2023-06-22T02:44:21;19.90;99.90
19755;DHT22;10036;47.812;9.274;2023-06-22T02:46:49;20.00;99.90
19755;DHT22;10036;47.812;9.274;2023-06-22T02:49:16;20.00;99.90
19755;DHT22;10036;47.812;9.274;2023-06-22T02:51:45;20.00;99.90
19755;DHT22;10036;47.812;9.274;2023-06-22T02:54:14;19.90;99.90
19755;DHT22;10036;47.812;9.274;2023-06-22T02:56:41;19.80;99.90
19755;DHT22;10036;47.812;9.274;2023-06-22T02:59:10;19.90;99.90
19755;DHT22;10036;47.812;9.274;2023-06-22T03:01:37;19.90;99.90
19755;DHT22;10036;47.812;9.274;2023-06-22T03:04:06;19.80;99.90
19755;DHT22;10036;47.812;9.274;2023-06-22T03:06:33;19.80;99.90
19755;DHT22;10036;47.812;9.274;2023-06-22T03:09:02;19.80;99.90
19755;DHT22;10036;47.812;9.274;2023-06-22T03:11:30;19.80;99.90
19755;DHT22;10036;47.812;9.274;2023-06-22T03:13:57;19.80;99.90
19755;DHT22;10036;47.812;9.274;2023-06-22T03:16:24;19.80;99.90
19755;DHT22;10036;47.812;9.274;2023-06-22T03:18:51;19.80;99.90
19755;DHT22;10036;47.812;9.274;2023-06-22T03:21:18;19.70;99.90
19755;DHT22;10036;47.812;9.274;2023-06-22T03:23:45;19.80;99.90
19755;DHT22;10036;47.812;9.274;2023-06-22T03:26:12;19.70;99.90
19755;DHT22;10036;47.812;9.274;2023-06-22T03:28:40;19.70;99.90
19755;DHT22;10036;47.812;9.274;2023-06-22T03:31:08;19.70;99.90
19755;DHT22;10036;47.812;9.274;2023-06-22T03:33:35;19.70;99.90
19755;DHT22;10036;47.812;9.274;2023-06-22T03:36:02;19.60;99.90
19755;DHT22;10036;47.812;9.274;2023-06-22T03:38:29;19.70;99.90
19755;DHT22;10036;47.812;9.274;2023-06-22T03:40:56;19.70;99.90
19755;DHT22;10036;47.812;9.274;2023-06-22T03:43:23;19.60;99.90
19755;DHT22;10036;47.812;9.274;2023-06-22T03:45:51;19.70;99.90
19755;DHT22;10036;47.812;9.274;2023-06-22T03:48:18;19.60;99.90
19755;DHT22;10036;47.812;9.274;2023-06-22T03:50:45;19.60;99.90
19755;DHT22;10036;47.812;9.274;2023-06-22T03:53:12;19.40;99.90
19755;DHT22;10036;47.812;9.274;2023-06-22T03:55:47;19.20;99.90
19755;DHT22;10036;47.812;9.274;2023-06-22T03:58:15;19.20;99.90
19755;DHT22;10036;47.812;9.274;2023-06-22T04:00:42;19.40;99.90
19755;DHT22;10036;47.812;9.274;2023-06-22T04:03:10;19.50;99.90
19755;DHT22;10036;47.812;9.274;2023-06-22T04:05:38;19.50;99.90
19755;DHT22;10036;47.812;9.274;2023-06-22T04:08:05;19.40;99.90
19755;DHT22;10036;47.812;9.274;2023-06-22T04:10:32;19.30;99.90
19755;DHT22;10036;47.812;9.274;2023-06-22T04:12:59;19.20;99.90
19755;DHT22;10036;47.812;9.274;2023-06-22T04:15:26;19.30;99.90
19755;DHT22;10036;47.812;9.274;2023-06-22T04:17:55;19.10;99.90
19755;DHT22;10036;47.812;9.274;2023-06-22T04:20:24;19.20;99.90
19755;DHT22;10036;47.812;9.274;2023-06-22T04:22:52;19.10;99.90
19755;DHT22;10036;47.812;9.274;2023-06-22T04:25:19;19.10;99.90
19755;DHT22;10036;47.812;9.274;2023-06-22T04:27:46;19.00;99.90
19755;DHT22;10036;47.812;9.274;2023-06-22T04:30:14;19.00;99.90
19755;DHT22;10036;47.812;9.274;2023-06-22T04:32:42;19.20;99.90
19755;DHT22;10036;47.812;9.274;2023-06-22T04:35:09;19.20;99.90
19755;DHT22;10036;47.812;9.274;2023-06-22T04:37:37;19.10;99.90
19755;DHT22;10036;47.812;9.274;2023-06-22T04:40:06;19.10;99.90
19755;DHT22;10036;47.812;9.274;2023-06-22T04:42:34;19.30;99.90
19755;DHT22;10036;47.812;9.274;2023-06-22T04:45:01;19.40;99.90
19755;DHT22;10036;47.812;9.274;2023-06-22T04:47:27;19.50;99.90
19755;DHT22;10036;47.812;9.274;2023-06-22T04:49:54;19.60;99.90
19755;DHT22;10036;47.812;9.274;2023-06-22T04:52:21;19.70;99.90
19755;DHT22;10036;47.812;9.274;2023-06-22T04:54:51;19.80;99.90
19755;DHT22;10036;47.812;9.274;2023-06-22T04:57:21;19.80;99.90
19755;DHT22;10036;47.812;9.274;2023-06-22T04:59:58;19.70;99.90
19755;DHT22;10036;47.812;9.274;2023-06-22T05:02:27;19.80;99.90
19755;DHT22;10036;47.812;9.274;2023-06-22T05:04:57;19.90;99.90
19755;DHT22;10036;47.812;9.274;2023-06-22T05:07:24;19.90;99.90
19755;DHT22;10036;47.812;9.274;2023-06-22T05:09:52;19.90;99.90
19755;DHT22;10036;47.812;9.274;2023-06-22T05:12:19;19.90;99.90
19755;DHT22;10036;47.812;9.274;2023-06-22T05:14:46;20.10;99.90
19755;DHT22;10036;47.812;9.274;2023-06-22T05:17:13;20.20;99.90
19755;DHT22;10036;47.812;9.274;2023-06-22T05:19:41;20.10;99.90
19755;DHT22;10036;47.812;9.274;2023-06-22T05:22:14;20.20;99.90
19755;DHT22;10036;47.812;9.274;2023-06-22T05:24:41;20.50;99.90
19755;DHT22;10036;47.812;9.274;2023-06-22T05:27:09;20.50;99.90
19755;DHT22;10036;47.812;9.274;2023-06-22T05:29:36;20.40;99.90
19755;DHT22;10036;47.812;9.274;2023-06-22T05:32:04;20.40;99.90
19755;DHT22;10036;47.812;9.274;2023-06-22T05:34:31;20.50;99.90
19755;DHT22;10036;47.812;9.274;2023-06-22T05:36:58;20.60;99.90
19755;DHT22;10036;47.812;9.274;2023-06-22T05:39:25;20.60;99.90
19755;DHT22;10036;47.812;9.274;2023-06-22T05:41:52;20.60;99.90
19755;DHT22;10036;47.812;9.274;2023-06-22T05:44:20;20.70;99.90
19755;DHT22;10036;47.812;9.274;2023-06-22T05:46:47;20.80;99.90
19755;DHT22;10036;47.812;9.274;2023-06-22T05:49:14;20.70;99.90
19755;DHT22;10036;47.812;9.274;2023-06-22T05:51:42;20.70;99.90
19755;DHT22;10036;47.812;9.274;2023-06-22T05:54:09;20.80;99.90
19755;DHT22;10036;47.812;9.274;2023-06-22T05:56:36;20.80;99.90
19755;DHT22;10036;47.812;9.274;2023-06-22T05:59:03;20.90;99.90
19755;DHT22;10036;47.812;9.274;2023-06-22T06:01:32;20.90;99.90
19755;DHT22;10036;47.812;9.274;2023-06-22T06:04:01;20.90;99.90
19755;DHT22;10036;47.812;9.274;2023-06-22T06:06:29;21.00;99.90
19755;DHT22;10036;47.812;9.274;2023-06-22T06:08:56;21.00;99.90
19755;DHT22;10036;47.812;9.274;2023-06-22T06:11:24;21.10;99.90
19755;DHT22;10036;47.812;9.274;2023-06-22T06:13:51;21.10;99.90
19755;DHT22;10036;47.812;9.274;2023-06-22T06:16:18;21.20;99.90
19755;DHT22;10036;47.812;9.274;2023-06-22T06:18:46;21.10;99.90
19755;DHT22;10036;47.812;9.274;2023-06-22T06:21:15;21.00;99.90
19755;DHT22;10036;47.812;9.274;2023-06-22T06:23:42;21.20;99.90
19755;DHT22;10036;47.812;9.274;2023-06-22T06:26:09;21.40;99.90
19755;DHT22;10036;47.812;9.274;2023-06-22T06:28:35;21.50;99.90
19755;DHT22;10036;47.812;9.274;2023-06-22T06:31:02;21.50;99.90
19755;DHT22;10036;47.812;9.274;2023-06-22T06:33:32;21.50;99.90
19755;DHT22;10036;47.812;9.274;2023-06-22T06:36:00;21.40;99.90
19755;DHT22;10036;47.812;9.274;2023-06-22T06:38:29;21.40;99.90
19755;DHT22;10036;47.812;9.274;2023-06-22T06:40:56;21.60;99.90
19755;DHT22;10036;47.812;9.274;2023-06-22T06:43:22;21.70;99.90
19755;DHT22;10036;47.812;9.274;2023-06-22T06:45:50;21.80;99.90
19755;DHT22;10036;47.812;9.274;2023-06-22T06:48:17;21.90;99.90
19755;DHT22;10036;47.812;9.274;2023-06-22T06:50:44;21.90;99.90
19755;DHT22;10036;47.812;9.274;2023-06-22T06:53:12;21.90;99.90
19755;DHT22;10036;47.812;9.274;2023-06-22T06:55:39;22.00;99.90
19755;DHT22;10036;47.812;9.274;2023-06-22T06:58:06;22.10;99.90
19755;DHT22;10036;47.812;9.274;2023-06-22T07:00:35;22.20;99.90
19755;DHT22;10036;47.812;9.274;2023-06-22T07:03:02;22.20;99.90
19755;DHT22;10036;47.812;9.274;2023-06-22T07:05:29;22.30;99.90
19755;DHT22;10036;47.812;9.274;2023-06-22T07:07:56;22.30;99.90
19755;DHT22;10036;47.812;9.274;2023-06-22T07:10:24;22.30;99.90
19755;DHT22;10036;47.812;9.274;2023-06-22T07:12:51;22.40;99.90
19755;DHT22;10036;47.812;9.274;2023-06-22T07:15:18;22.50;99.90
19755;DHT22;10036;47.812;9.274;2023-06-22T07:17:45;22.60;99.90
19755;DHT22;10036;47.812;9.274;2023-06-22T07:20:12;22.60;99.90
19755;DHT22;10036;47.812;9.274;2023-06-22T07:22:40;22.60;99.90
19755;DHT22;10036;47.812;9.274;2023-06-22T07:25:08;22.60;99.90
19755;DHT22;10036;47.812;9.274;2023-06-22T07:27:38;22.60;99.90
19755;DHT22;10036;47.812;9.274;2023-06-22T07:30:09;22.60;99.90
19755;DHT22;10036;47.812;9.274;2023-06-22T07:32:36;22.60;99.90
19755;DHT22;10036;47.812;9.274;2023-06-22T07:35:04;22.70;99.90
19755;DHT22;10036;47.812;9.274;2023-06-22T07:37:31;22.70;99.90
19755;DHT22;10036;47.812;9.274;2023-06-22T07:39:59;22.80;99.90
19755;DHT22;10036;47.812;9.274;2023-06-22T07:42:26;22.90;99.90
19755;DHT22;10036;47.812;9.274;2023-06-22T07:44:55;23.00;99.90
19755;DHT22;10036;47.812;9.274;2023-06-22T07:47:22;23.00;99.90
19755;DHT22;10036;47.812;9.274;2023-06-22T07:49:50;23.10;99.90
19755;DHT22;10036;47.812;9.274;2023-06-22T07:52:17;23.20;99.90
19755;DHT22;10036;47.812;9.274;2023-06-22T07:54:44;23.30;99.90
19755;DHT22;10036;47.812;9.274;2023-06-22T07:57:11;23.40;99.90
19755;DHT22;10036;47.812;9.274;2023-06-22T07:59:38;23.50;99.90
19755;DHT22;10036;47.812;9.274;2023-06-22T08:02:06;23.70;99.90
19755;DHT22;10036;47.812;9.274;2023-06-22T08:04:34;23.80;99.90
19755;DHT22;10036;47.812;9.274;2023-06-22T08:07:01;23.80;99.90
19755;DHT22;10036;47.812;9.274;2023-06-22T08:09:29;24.10;99.90
19755;DHT22;10036;47.812;9.274;2023-06-22T08:11:57;24.40;99.90
19755;DHT22;10036;47.812;9.274;2023-06-22T08:14:25;24.60;99.90
19755;DHT22;10036;47.812;9.274;2023-06-22T08:16:52;24.70;99.90
19755;DHT22;10036;47.812;9.274;2023-06-22T08:19:20;24.60;99.90
19755;DHT22;10036;47.812;9.274;2023-06-22T08:21:47;24.40;99.90
19755;DHT22;10036;47.812;9.274;2023-06-22T08:24:14;24.50;99.90
19755;DHT22;10036;47.812;9.274;2023-06-22T08:26:41;24.30;99.90
19755;DHT22;10036;47.812;9.274;2023-06-22T08:29:07;24.50;99.90
19755;DHT22;10036;47.812;9.274;2023-06-22T08:31:34;24.60;99.90
19755;DHT22;10036;47.812;9.274;2023-06-22T08:34:01;24.60;99.90
19755;DHT22;10036;47.812;9.274;2023-06-22T08:36:29;24.60;99.90
19755;DHT22;10036;47.812;9.274;2023-06-22T08:39:03;24.70;99.90
19755;DHT22;10036;47.812;9.274;2023-06-22T08:41:30;24.50;99.90
19755;DHT22;10036;47.812;9.274;2023-06-22T08:43:57;24.40;99.90
19755;DHT22;10036;47.812;9.274;2023-06-22T08:46:24;24.40;99.90
19755;DHT22;10036;47.812;9.274;2023-06-22T08:48:56;24.20;99.90
19755;DHT22;10036;47.812;9.274;2023-06-22T08:51:23;24.30;99.90
19755;DHT22;10036;47.812;9.274;2023-06-22T08:53:52;24.30;99.90
19755;DHT22;10036;47.812;9.274;2023-06-22T08:56:18;24.30;99.90
19755;DHT22;10036;47.812;9.274;2023-06-22T08:58:45;24.50;99.90
19755;DHT22;10036;47.812;9.274;2023-06-22T09:01:12;24.60;99.90
19755;DHT22;10036;47.812;9.274;2023-06-22T09:03:41;24.80;99.90
19755;DHT22;10036;47.812;9.274;2023-06-22T09:06:07;24.90;99.90
19755;DHT22;10036;47.812;9.274;2023-06-22T09:08:35;24.90;99.90
19755;DHT22;10036;47.812;9.274;2023-06-22T09:11:04;24.80;99.90
19755;DHT22;10036;47.812;9.274;2023-06-22T09:13:31;24.60;99.90
19755;DHT22;10036;47.812;9.274;2023-06-22T09:15:58;24.50;99.90
19755;DHT22;10036;47.812;9.274;2023-06-22T09:18:25;24.60;99.90
19755;DHT22;10036;47.812;9.274;2023-06-22T09:20:52;24.80;99.90
19755;DHT22;10036;47.812;9.274;2023-06-22T09:23:19;25.00;99.90
19755;DHT22;10036;47.812;9.274;2023-06-22T09:25:46;25.20;99.90
19755;DHT22;10036;47.812;9.274;2023-06-22T09:28:15;25.30;99.90
19755;DHT22;10036;47.812;9.274;2023-06-22T09:30:43;25.20;99.90
19755;DHT22;10036;47.812;9.274;2023-06-22T09:33:10;25.20;99.90
19755;DHT22;10036;47.812;9.274;2023-06-22T09:35:36;25.20;99.90
19755;DHT22;10036;47.812;9.274;2023-06-22T09:38:04;25.30;99.90
19755;DHT22;10036;47.812;9.274;2023-06-22T09:40:30;25.20;99.90
19755;DHT22;10036;47.812;9.274;2023-06-22T09:43:00;25.20;99.90
19755;DHT22;10036;47.812;9.274;2023-06-22T09:45:29;25.30;99.90
19755;DHT22;10036;47.812;9.274;2023-06-22T09:47:56;25.40;99.90
19755;DHT22;10036;47.812;9.274;2023-06-22T09:50:23;25.80;99.90
19755;DHT22;10036;47.812;9.274;2023-06-22T09:52:50;25.90;99.90
19755;DHT22;10036;47.812;9.274;2023-06-22T09:55:20;26.00;99.90
19755;DHT22;10036;47.812;9.274;2023-06-22T09:57:47;26.00;99.90
19755;DHT22;10036;47.812;9.274;2023-06-22T10:00:15;26.20;99.90
19755;DHT22;10036;47.812;9.274;2023-06-22T10:02:43;26.40;99.90
19755;DHT22;10036;47.812;9.274;2023-06-22T10:05:10;26.50;99.90
19755;DHT22;10036;47.812;9.274;2023-06-22T10:07:37;26.70;99.90
19755;DHT22;10036;47.812;9.274;2023-06-22T10:10:08;26.70;99.90
19755;DHT22;10036;47.812;9.274;2023-06-22T10:12:35;26.80;99.90
19755;DHT22;10036;47.812;9.274;2023-06-22T10:15:03;26.90;99.90
19755;DHT22;10036;47.812;9.274;2023-06-22T10:17:29;27.00;99.90
19755;DHT22;10036;47.812;9.274;2023-06-22T10:19:58;27.10;99.90
19755;DHT22;10036;47.812;9.274;2023-06-22T10:22:26;27.00;99.90
19755;DHT22;10036;47.812;9.274;2023-06-22T10:24:53;26.80;99.90
19755;DHT22;10036;47.812;9.274;2023-06-22T10:27:23;26.90;99.90
19755;DHT22;10036;47.812;9.274;2023-06-22T10:29:49;27.00;99.90
19755;DHT22;10036;47.812;9.274;2023-06-22T10:32:16;27.10;99.90
19755;DHT22;10036;47.812;9.274;2023-06-22T10:34:43;27.20;99.90
19755;DHT22;10036;47.812;9.274;2023-06-22T10:37:11;27.30;99.90
19755;DHT22;10036;47.812;9.274;2023-06-22T10:39:38;27.30;99.90
19755;DHT22;10036;47.812;9.274;2023-06-22T10:42:05;27.60;99.90
19755;DHT22;10036;47.812;9.274;2023-06-22T10:44:32;28.00;99.90
19755;DHT22;10036;47.812;9.274;2023-06-22T10:46:59;28.00;99.90
19755;DHT22;10036;47.812;9.274;2023-06-22T10:49:26;27.90;99.90
19755;DHT22;10036;47.812;9.274;2023-06-22T10:51:53;28.00;99.90
19755;DHT22;10036;47.812;9.274;2023-06-22T10:54:21;27.80;99.90
19755;DHT22;10036;47.812;9.274;2023-06-22T10:56:48;28.00;99.90
19755;DHT22;10036;47.812;9.274;2023-06-22T10:59:15;28.20;99.90
19755;DHT22;10036;47.812;9.274;2023-06-22T11:01:42;28.00;99.90
19755;DHT22;10036;47.812;9.274;2023-06-22T11:04:09;27.90;99.90
19755;DHT22;10036;47.812;9.274;2023-06-22T11:06:36;27.80;99.90
19755;DHT22;10036;47.812;9.274;2023-06-22T11:09:03;27.80;99.90
19755;DHT22;10036;47.812;9.274;2023-06-22T11:11:31;28.10;99.90
19755;DHT22;10036;47.812;9.274;2023-06-22T11:13:58;28.30;99.90
19755;DHT22;10036;47.812;9.274;2023-06-22T11:16:25;28.20;99.90
19755;DHT22;10036;47.812;9.274;2023-06-22T11:18:52;28.20;99.90
19755;DHT22;10036;47.812;9.274;2023-06-22T11:21:19;28.40;99.90
19755;DHT22;10036;47.812;9.274;2023-06-22T11:23:45;28.30;99.90
19755;DHT22;10036;47.812;9.274;2023-06-22T11:26:12;28.40;99.90
19755;DHT22;10036;47.812;9.274;2023-06-22T11:28:41;28.40;99.90
19755;DHT22;10036;47.812;9.274;2023-06-22T11:31:07;28.50;99.90
19755;DHT22;10036;47.812;9.274;2023-06-22T11:33:34;28.60;99.90
19755;DHT22;10036;47.812;9.274;2023-06-22T11:36:02;28.50;99.90
19755;DHT22;10036;47.812;9.274;2023-06-22T11:38:29;28.50;99.90
19755;DHT22;10036;47.812;9.274;2023-06-22T11:40:58;28.60;99.90
19755;DHT22;10036;47.812;9.274;2023-06-22T11:43:25;28.50;99.90
19755;DHT22;10036;47.812;9.274;2023-06-22T11:45:53;28.60;99.90
19755;DHT22;10036;47.812;9.274;2023-06-22T11:48:21;28.50;99.90
19755;DHT22;10036;47.812;9.274;2023-06-22T11:50:48;28.50;99.90
19755;DHT22;10036;47.812;9.274;2023-06-22T11:53:15;28.60;99.90
19755;DHT22;10036;47.812;9.274;2023-06-22T11:55:43;28.40;99.90
19755;DHT22;10036;47.812;9.274;2023-06-22T11:58:10;28.40;99.90
19755;DHT22;10036;47.812;9.274;2023-06-22T12:00:37;28.20;99.90
19755;DHT22;10036;47.812;9.274;2023-06-22T12:03:06;27.80;99.90
19755;DHT22;10036;47.812;9.274;2023-06-22T12:05:33;27.60;99.90
19755;DHT22;10036;47.812;9.274;2023-06-22T12:07:59;27.80;99.90
19755;DHT22;10036;47.812;9.274;2023-06-22T12:10:26;28.00;99.90
19755;DHT22;10036;47.812;9.274;2023-06-22T12:12:54;28.20;99.90
19755;DHT22;10036;47.812;9.274;2023-06-22T12:15:21;28.00;99.90
19755;DHT22;10036;47.812;9.274;2023-06-22T12:17:47;28.00;99.90
19755;DHT22;10036;47.812;9.274;2023-06-22T12:20:16;28.20;99.90
19755;DHT22;10036;47.812;9.274;2023-06-22T12:22:43;28.20;99.90
19755;DHT22;10036;47.812;9.274;2023-06-22T12:25:10;28.40;99.90
19755;DHT22;10036;47.812;9.274;2023-06-22T12:27:37;28.30;99.90
19755;DHT22;10036;47.812;9.274;2023-06-22T12:30:05;28.20;99.90
19755;DHT22;10036;47.812;9.274;2023-06-22T12:32:32;28.00;99.90
19755;DHT22;10036;47.812;9.274;2023-06-22T12:34:59;28.20;99.90
19755;DHT22;10036;47.812;9.274;2023-06-22T12:37:27;28.10;99.90
19755;DHT22;10036;47.812;9.274;2023-06-22T12:39:54;28.10;99.90
19755;DHT22;10036;47.812;9.274;2023-06-22T12:42:21;28.00;99.90
19755;DHT22;10036;47.812;9.274;2023-06-22T12:44:48;28.00;99.90
19755;DHT22;10036;47.812;9.274;2023-06-22T12:47:15;28.00;99.90
19755;DHT22;10036;47.812;9.274;2023-06-22T12:49:41;28.20;99.90
19755;DHT22;10036;47.812;9.274;2023-06-22T12:52:09;28.10;99.90
19755;DHT22;10036;47.812;9.274;2023-06-22T12:54:38;28.10;99.90
19755;DHT22;10036;47.812;9.274;2023-06-22T12:57:05;28.10;99.90
19755;DHT22;10036;47.812;9.274;2023-06-22T12:59:32;28.10;99.90
19755;DHT22;10036;47.812;9.274;2023-06-22T13:01:59;28.00;99.90
19755;DHT22;10036;47.812;9.274;2023-06-22T13:04:26;28.10;99.90
19755;DHT22;10036;47.812;9.274;2023-06-22T13:06:53;28.20;99.90
19755;DHT22;10036;47.812;9.274;2023-06-22T13:09:20;28.20;99.90
19755;DHT22;10036;47.812;9.274;2023-06-22T13:11:48;28.40;99.90
19755;DHT22;10036;47.812;9.274;2023-06-22T13:14:15;28.60;99.90
19755;DHT22;10036;47.812;9.274;2023-06-22T13:16:42;28.80;99.90
19755;DHT22;10036;47.812;9.274;2023-06-22T13:19:09;28.90;99.90
19755;DHT22;10036;47.812;9.274;2023-06-22T13:21:36;28.80;99.90
19755;DHT22;10036;47.812;9.274;2023-06-22T13:24:03;28.60;99.90
19755;DHT22;10036;47.812;9.274;2023-06-22T13:26:31;28.60;99.90
19755;DHT22;10036;47.812;9.274;2023-06-22T13:29:00;28.60;99.90
19755;DHT22;10036;47.812;9.274;2023-06-22T13:31:27;28.90;99.90
19755;DHT22;10036;47.812;9.274;2023-06-22T13:33:54;29.10;99.90
19755;DHT22;10036;47.812;9.274;2023-06-22T13:36:20;29.30;99.90
19755;DHT22;10036;47.812;9.274;2023-06-22T13:38:48;29.70;99.90
19755;DHT22;10036;47.812;9.274;2023-06-22T13:41:15;29.60;99.90
19755;DHT22;10036;47.812;9.274;2023-06-22T13:43:42;29.80;99.90
19755;DHT22;10036;47.812;9.274;2023-06-22T13:46:10;29.60;99.90
19755;DHT22;10036;47.812;9.274;2023-06-22T13:48:37;29.50;99.90
19755;DHT22;10036;47.812;9.274;2023-06-22T13:51:04;29.40;99.90
19755;DHT22;10036;47.812;9.274;2023-06-22T13:53:31;29.20;99.90
19755;DHT22;10036;47.812;9.274;2023-06-22T13:55:58;29.20;99.90
19755;DHT22;10036;47.812;9.274;2023-06-22T13:58:25;29.30;99.90
19755;DHT22;10036;47.812;9.274;2023-06-22T14:00:52;29.50;99.90
19755;DHT22;10036;47.812;9.274;2023-06-22T14:03:20;29.60;99.90
19755;DHT22;10036;47.812;9.274;2023-06-22T14:05:47;29.60;99.90
19755;DHT22;10036;47.812;9.274;2023-06-22T14:08:14;29.50;99.90
19755;DHT22;10036;47.812;9.274;2023-06-22T14:10:40;29.70;99.90
19755;DHT22;10036;47.812;9.274;2023-06-22T14:13:07;30.00;99.90
19755;DHT22;10036;47.812;9.274;2023-06-22T14:15:34;29.80;99.90
19755;DHT22;10036;47.812;9.274;2023-06-22T14:18:01;29.70;99.90
19755;DHT22;10036;47.812;9.274;2023-06-22T14:20:29;29.50;99.90
19755;DHT22;10036;47.812;9.274;2023-06-22T14:22:56;29.60;99.90
19755;DHT22;10036;47.812;9.274;2023-06-22T14:25:23;30.00;99.90
19755;DHT22;10036;47.812;9.274;2023-06-22T14:27:50;30.00;99.90
19755;DHT22;10036;47.812;9.274;2023-06-22T14:30:17;29.90;99.90
19755;DHT22;10036;47.812;9.274;2023-06-22T14:32:44;29.60;99.90
19755;DHT22;10036;47.812;9.274;2023-06-22T14:35:11;29.50;99.90
19755;DHT22;10036;47.812;9.274;2023-06-22T14:37:39;29.50;99.90
19755;DHT22;10036;47.812;9.274;2023-06-22T14:40:07;29.30;99.90
19755;DHT22;10036;47.812;9.274;2023-06-22T14:42:34;29.40;99.90
19755;DHT22;10036;47.812;9.274;2023-06-22T14:45:01;29.30;99.90
19755;DHT22;10036;47.812;9.274;2023-06-22T14:47:27;29.10;99.90
19755;DHT22;10036;47.812;9.274;2023-06-22T14:49:54;29.10;99.90
19755;DHT22;10036;47.812;9.274;2023-06-22T14:52:21;28.90;99.90
19755;DHT22;10036;47.812;9.274;2023-06-22T14:54:49;28.80;99.90
19755;DHT22;10036;47.812;9.274;2023-06-22T14:57:18;28.70;99.90
19755;DHT22;10036;47.812;9.274;2023-06-22T14:59:45;28.70;99.90
19755;DHT22;10036;47.812;9.274;2023-06-22T15:02:12;28.80;99.90
19755;DHT22;10036;47.812;9.274;2023-06-22T15:04:39;28.70;99.90
19755;DHT22;10036;47.812;9.274;2023-06-22T15:07:06;28.70;99.90
19755;DHT22;10036;47.812;9.274;2023-06-22T15:09:33;28.90;99.90
19755;DHT22;10036;47.812;9.274;2023-06-22T15:12:01;29.00;99.90
19755;DHT22;10036;47.812;9.274;2023-06-22T15:14:31;29.00;99.90
19755;DHT22;10036;47.812;9.274;2023-06-22T15:16:58;29.10;99.90
19755;DHT22;10036;47.812;9.274;2023-06-22T15:19:25;29.00;99.90
19755;DHT22;10036;47.812;9.274;2023-06-22T15:21:51;29.20;99.90
19755;DHT22;10036;47.812;9.274;2023-06-22T15:24:18;29.30;99.90
19755;DHT22;10036;47.812;9.274;2023-06-22T15:26:45;29.20;99.90
19755;DHT22;10036;47.812;9.274;2023-06-22T15:29:13;29.20;99.90
19755;DHT22;10036;47.812;9.274;2023-06-22T15:31:40;29.20;99.90